Ana Sayfa
METAR-TAF:

METAR-TAF

Havaalanları :

Regional_Airport

Clinton, Oklahoma, Amerika Birleşik Devletleri

Enlem: 35-32-17N, Boylam: 098-55-17W, yükseklik: 492 m

Güncel hava durumu gözlemi

Rapor saat 04:15 UTC de 8 dakika önce yapıldı.
Rüzgar kuzey/kuzeydoğudan 8 kt
Sıcaklık 1°C
Nem 44%
Basınç 1023 hPa
Görüş mesafesi: 16.1 km
12000 ft yükseklikte çok bulutlu

METAR: KCLK 100415Z AUTO 02008KT 10SM OVC120 01/M10 A3020 RMK AO2 PNO TSNO

Saat: 22:23 (04:23 UTC)


TAF: eksik

4.000'den fazla havaalanı için hava durumu gözlemleri ve tahminleri (METAR ve TAF raporları).

Kullanılabilir istasyonlar harita üzerinde sarı ve kırmızı noktalarla gösterilir.

İstasyonun adını görmek için fareyi noktanın üzerinde gezdirin.

Sonrasında hava gözlem ve tahminlerini görmek için tıklayın.

Haritayı değiştirmek için: yaklaştırmak için siyah artı işaretli yeşil düğmeye ve uzaklaştırmak için de eksi işaretli düğmeye hızla tıklayın; bitişik haritalar için yeşil okları kullanın.


METAR-TAF: